createdAt,value
2018-10-05T00:01:31.525Z,10.40
2018-10-05T00:03:59.736Z,10.30
2018-10-05T00:06:27.934Z,10.20
2018-10-05T00:08:56.079Z,10.20
2018-10-05T00:11:24.220Z,10.10
2018-10-05T00:13:52.394Z,10.10
2018-10-05T00:16:20.559Z,10.00
2018-10-05T00:18:48.819Z,9.90
2018-10-05T00:21:16.991Z,10.00
2018-10-05T00:23:45.093Z,10.00
2018-10-05T00:26:13.264Z,9.90
2018-10-05T00:28:41.429Z,9.90
2018-10-05T00:31:09.601Z,9.90
2018-10-05T00:33:37.752Z,10.00
2018-10-05T00:36:05.943Z,9.90
2018-10-05T00:38:34.127Z,9.70
2018-10-05T00:41:02.305Z,9.60
2018-10-05T00:43:31.447Z,9.60
2018-10-05T00:45:59.740Z,9.50
2018-10-05T00:48:27.836Z,9.60
2018-10-05T00:50:56.072Z,9.50
2018-10-05T00:53:24.272Z,9.50
2018-10-05T00:55:52.437Z,9.60
2018-10-05T00:58:20.639Z,9.60
2018-10-05T01:00:48.828Z,9.60
2018-10-05T01:03:16.994Z,9.70
2018-10-05T01:05:45.288Z,9.70
2018-10-05T01:08:13.481Z,9.80
2018-10-05T01:10:41.776Z,9.70
2018-10-05T01:13:09.921Z,9.70
2018-10-05T01:15:38.190Z,9.80
2018-10-05T01:18:06.666Z,9.90
2018-10-05T01:20:34.804Z,9.80
2018-10-05T01:23:02.914Z,9.80
2018-10-05T01:25:31.116Z,9.70
2018-10-05T01:27:59.310Z,9.60
2018-10-05T01:30:27.474Z,9.60
2018-10-05T01:32:55.603Z,9.50
2018-10-05T01:35:23.840Z,9.60
2018-10-05T01:37:51.948Z,9.50
2018-10-05T01:40:20.162Z,9.50
2018-10-05T01:42:48.334Z,9.50
2018-10-05T01:45:16.493Z,9.50
2018-10-05T01:47:44.694Z,9.50
2018-10-05T01:50:12.833Z,9.40
2018-10-05T01:52:40.969Z,9.30
2018-10-05T01:55:09.077Z,9.20
2018-10-05T01:57:37.314Z,9.20
2018-10-05T02:00:05.433Z,9.10
2018-10-05T02:02:33.685Z,9.10
2018-10-05T02:05:01.805Z,9.00
2018-10-05T02:07:29.934Z,9.10
2018-10-05T02:09:58.120Z,9.00
2018-10-05T02:12:26.277Z,9.00
2018-10-05T02:14:54.366Z,9.00
2018-10-05T02:17:22.525Z,9.00
2018-10-05T02:19:50.681Z,9.00
2018-10-05T02:22:18.788Z,9.00
2018-10-05T02:24:46.968Z,9.00
2018-10-05T02:27:15.104Z,9.00
2018-10-05T02:29:43.275Z,9.00
2018-10-05T02:32:11.529Z,8.90
2018-10-05T02:34:39.668Z,8.90
2018-10-05T02:37:19.751Z,8.80
2018-10-05T02:39:48.069Z,8.80
2018-10-05T02:42:16.293Z,8.70
2018-10-05T02:44:44.472Z,8.70
2018-10-05T02:47:12.633Z,8.60
2018-10-05T02:49:41.458Z,8.60
2018-10-05T02:52:10.897Z,8.60
2018-10-05T02:54:39.165Z,8.60
2018-10-05T02:57:07.590Z,8.60
2018-10-05T02:59:36.156Z,8.50
2018-10-05T03:02:23.948Z,8.50
2018-10-05T03:07:31.179Z,8.40
2018-10-05T03:10:01.341Z,8.50
2018-10-05T03:12:30.283Z,8.40
2018-10-05T03:14:59.453Z,8.40
2018-10-05T03:17:28.088Z,8.30
2018-10-05T03:19:56.770Z,8.30
2018-10-05T03:22:25.508Z,8.30
2018-10-05T03:24:53.682Z,8.30
2018-10-05T03:27:21.874Z,8.30
2018-10-05T03:29:50.969Z,8.30
2018-10-05T03:32:19.193Z,8.20
2018-10-05T03:34:47.471Z,8.20
2018-10-05T03:37:15.750Z,8.20
2018-10-05T03:39:43.929Z,8.20
2018-10-05T03:42:12.618Z,8.30
2018-10-05T03:44:40.938Z,8.30
2018-10-05T03:47:09.176Z,8.40
2018-10-05T03:49:37.398Z,8.40
2018-10-05T03:52:07.420Z,8.50
2018-10-05T03:54:35.838Z,8.50
2018-10-05T03:57:06.000Z,8.40
2018-10-05T03:59:34.202Z,8.40
2018-10-05T04:02:02.503Z,8.40
2018-10-05T04:04:30.746Z,8.40
2018-10-05T04:07:00.402Z,8.40
2018-10-05T04:09:28.568Z,8.30
2018-10-05T04:11:57.457Z,8.30
2018-10-05T04:14:27.113Z,8.30
2018-10-05T04:16:55.334Z,8.30
2018-10-05T04:19:23.854Z,8.30
2018-10-05T04:21:51.989Z,8.30
2018-10-05T04:24:20.207Z,8.30
2018-10-05T04:26:48.522Z,8.20
2018-10-05T04:29:16.756Z,8.20
2018-10-05T04:31:45.405Z,8.20
2018-10-05T04:34:13.679Z,8.20
2018-10-05T04:36:41.984Z,8.10
2018-10-05T04:39:10.332Z,8.10
2018-10-05T04:41:39.780Z,8.10
2018-10-05T04:44:08.102Z,8.10
2018-10-05T04:46:36.353Z,8.00
2018-10-05T04:49:04.518Z,8.00
2018-10-05T04:51:32.792Z,8.00
2018-10-05T04:54:00.932Z,7.90
2018-10-05T04:56:29.095Z,7.90
2018-10-05T04:58:57.235Z,7.90
2018-10-05T05:01:25.328Z,7.90
2018-10-05T05:03:53.480Z,7.80
2018-10-05T05:06:21.679Z,7.80
2018-10-05T05:08:49.966Z,7.80
2018-10-05T05:11:18.037Z,7.80
2018-10-05T05:13:46.199Z,7.80
2018-10-05T05:16:14.401Z,7.80
2018-10-05T05:18:42.564Z,7.70
2018-10-05T05:21:10.716Z,7.70
2018-10-05T05:23:38.959Z,7.70
2018-10-05T05:26:07.193Z,7.70
2018-10-05T05:28:35.338Z,7.60
2018-10-05T05:31:03.617Z,7.60
2018-10-05T05:33:31.847Z,7.60
2018-10-05T05:35:59.979Z,7.60
2018-10-05T05:38:28.169Z,7.70
2018-10-05T05:40:56.353Z,7.70
2018-10-05T05:43:24.497Z,7.70
2018-10-05T05:45:52.686Z,7.70
2018-10-05T05:48:20.846Z,7.60
2018-10-05T05:50:49.072Z,7.70
2018-10-05T05:53:17.213Z,7.70
2018-10-05T05:55:45.371Z,7.70
2018-10-05T05:58:13.576Z,7.70
2018-10-05T06:00:42.019Z,7.70
2018-10-05T06:03:10.241Z,7.80
2018-10-05T06:05:38.383Z,7.80
2018-10-05T06:08:06.599Z,7.80
2018-10-05T06:10:34.822Z,7.90
2018-10-05T06:13:03.051Z,7.90
2018-10-05T06:15:31.192Z,7.90
2018-10-05T06:17:59.365Z,8.00
2018-10-05T06:20:27.570Z,8.00
2018-10-05T06:22:55.764Z,8.00
2018-10-05T06:25:23.917Z,8.00
2018-10-05T06:27:52.041Z,8.10
2018-10-05T06:30:20.322Z,8.20
2018-10-05T06:32:48.541Z,8.20
2018-10-05T06:35:16.645Z,8.30
2018-10-05T06:37:44.759Z,8.40
2018-10-05T06:40:12.922Z,8.40
2018-10-05T06:42:41.125Z,8.60
2018-10-05T06:45:09.244Z,8.70
2018-10-05T06:47:37.405Z,8.90
2018-10-05T06:50:05.655Z,8.80
2018-10-05T06:52:34.609Z,8.80
2018-10-05T06:55:02.827Z,8.90
2018-10-05T06:57:30.998Z,9.00
2018-10-05T06:59:59.142Z,9.20
2018-10-05T07:02:27.266Z,9.30
2018-10-05T07:04:55.449Z,9.20
2018-10-05T07:07:23.621Z,9.30
2018-10-05T07:09:51.715Z,9.30
2018-10-05T07:12:19.810Z,9.50
2018-10-05T07:14:48.162Z,9.60
2018-10-05T07:17:16.301Z,9.60
2018-10-05T07:19:44.444Z,9.90
2018-10-05T07:22:12.671Z,10.10
2018-10-05T07:24:40.743Z,10.10
2018-10-05T07:27:08.924Z,10.20
2018-10-05T07:29:37.070Z,10.30
2018-10-05T07:32:05.265Z,10.50
2018-10-05T07:34:33.350Z,10.60
2018-10-05T07:37:01.501Z,10.80
2018-10-05T07:39:29.646Z,10.80
2018-10-05T07:41:57.830Z,11.10
2018-10-05T07:44:26.005Z,11.20
2018-10-05T07:46:54.191Z,11.30
2018-10-05T07:49:22.383Z,11.50
2018-10-05T07:51:50.528Z,11.60
2018-10-05T07:54:18.670Z,11.60
2018-10-05T07:56:46.862Z,11.70
2018-10-05T07:59:15.105Z,11.90
2018-10-05T08:01:43.340Z,11.90
2018-10-05T08:04:11.525Z,12.00
2018-10-05T08:06:39.691Z,12.10
2018-10-05T08:09:07.872Z,12.30
2018-10-05T08:11:36.142Z,12.30
2018-10-05T08:14:04.290Z,12.50
2018-10-05T08:16:32.501Z,12.70
2018-10-05T08:19:00.718Z,13.00
2018-10-05T08:21:28.949Z,14.40
2018-10-05T08:23:57.103Z,15.50
2018-10-05T08:26:25.304Z,16.40
2018-10-05T08:28:53.444Z,16.70
2018-10-05T08:31:21.875Z,16.80
2018-10-05T08:33:50.090Z,17.30
2018-10-05T08:36:18.216Z,17.50
2018-10-05T08:38:46.380Z,17.50
2018-10-05T08:41:14.481Z,18.20
2018-10-05T08:43:42.707Z,18.30
2018-10-05T08:46:10.814Z,18.30
2018-10-05T08:48:38.921Z,18.20
2018-10-05T08:51:07.075Z,18.00
2018-10-05T08:53:35.156Z,18.20
2018-10-05T08:56:03.319Z,19.30
2018-10-05T08:58:31.463Z,19.70
2018-10-05T09:00:59.559Z,20.50
2018-10-05T09:03:27.660Z,20.90
2018-10-05T09:05:56.020Z,21.10
2018-10-05T09:08:24.015Z,20.40
2018-10-05T09:10:52.152Z,21.10
2018-10-05T09:13:20.260Z,21.50
2018-10-05T09:15:48.425Z,21.50
2018-10-05T09:18:16.632Z,22.10
2018-10-05T09:20:44.731Z,21.80
2018-10-05T09:23:12.877Z,22.30
2018-10-05T09:25:41.124Z,22.00
2018-10-05T09:28:09.313Z,22.30
2018-10-05T09:30:37.546Z,22.60
2018-10-05T09:33:05.655Z,23.70
2018-10-05T09:35:33.792Z,23.60
2018-10-05T09:38:01.980Z,23.60
2018-10-05T09:40:29.936Z,24.00
2018-10-05T09:42:58.012Z,24.90
2018-10-05T09:45:26.127Z,24.90
2018-10-05T09:47:54.277Z,24.10
2018-10-05T09:50:22.476Z,24.80
2018-10-05T09:52:50.693Z,25.10
2018-10-05T09:55:18.972Z,24.70
2018-10-05T09:57:47.074Z,24.70
2018-10-05T10:00:20.771Z,24.60
2018-10-05T10:02:54.411Z,24.40
2018-10-05T10:05:23.177Z,24.70
2018-10-05T10:07:51.691Z,24.90
2018-10-05T10:10:19.929Z,24.50
2018-10-05T10:12:48.152Z,25.60
2018-10-05T10:15:16.257Z,24.40
2018-10-05T10:17:44.372Z,25.30
2018-10-05T10:20:12.516Z,25.90
2018-10-05T10:22:40.746Z,26.30
2018-10-05T10:25:09.048Z,26.40
2018-10-05T10:27:37.206Z,26.20
2018-10-05T10:30:05.440Z,26.60
2018-10-05T10:32:33.587Z,26.90
2018-10-05T10:35:01.647Z,26.70
2018-10-05T10:37:29.732Z,26.40
2018-10-05T10:39:57.831Z,26.50
2018-10-05T10:42:25.993Z,26.60
2018-10-05T10:44:54.182Z,27.00
2018-10-05T10:47:22.311Z,26.20
2018-10-05T10:49:50.383Z,25.90
2018-10-05T10:52:18.470Z,26.70
2018-10-05T10:54:46.566Z,26.80
2018-10-05T10:57:14.729Z,26.40
2018-10-05T10:59:42.888Z,26.40
2018-10-05T11:02:10.997Z,26.30
2018-10-05T11:04:39.342Z,27.00
2018-10-05T11:07:07.324Z,26.40
2018-10-05T11:09:35.393Z,26.80
2018-10-05T11:12:03.576Z,28.10
2018-10-05T11:14:31.798Z,26.90
2018-10-05T11:16:59.997Z,27.10
2018-10-05T11:19:28.096Z,26.30
2018-10-05T11:21:56.277Z,27.00
2018-10-05T11:24:24.424Z,27.30
2018-10-05T11:26:52.725Z,27.80
2018-10-05T11:29:21.116Z,27.50
2018-10-05T11:31:49.277Z,26.90
2018-10-05T11:34:17.473Z,27.00
2018-10-05T11:36:45.609Z,26.70
2018-10-05T11:39:13.704Z,26.80
2018-10-05T11:41:41.873Z,26.40
2018-10-05T11:44:10.020Z,28.10
2018-10-05T11:46:38.103Z,27.80
2018-10-05T11:49:06.256Z,28.60
2018-10-05T11:51:34.357Z,28.50
2018-10-05T11:54:02.511Z,27.80
2018-10-05T11:56:30.595Z,27.60
2018-10-05T11:58:58.701Z,27.00
2018-10-05T12:01:26.847Z,27.00
2018-10-05T12:03:55.111Z,27.00
2018-10-05T12:06:23.256Z,27.00
2018-10-05T12:08:51.343Z,26.40
2018-10-05T12:11:19.459Z,26.10
2018-10-05T12:13:47.696Z,26.50
2018-10-05T12:16:15.764Z,27.40
2018-10-05T12:18:43.891Z,26.30
2018-10-05T12:21:12.101Z,26.70
2018-10-05T12:23:40.241Z,27.20
2018-10-05T12:26:08.766Z,27.90
2018-10-05T12:28:36.935Z,28.10
2018-10-05T12:31:05.090Z,27.50
2018-10-05T12:33:33.262Z,27.40
2018-10-05T12:36:01.373Z,28.30
2018-10-05T12:38:29.590Z,27.90
2018-10-05T12:40:57.784Z,27.20
2018-10-05T12:43:25.945Z,27.10
2018-10-05T12:45:54.181Z,27.50
2018-10-05T12:48:22.361Z,27.20
2018-10-05T12:50:50.461Z,26.80
2018-10-05T12:53:18.604Z,27.50
2018-10-05T12:55:46.763Z,27.90
2018-10-05T12:58:14.945Z,28.60
2018-10-05T13:00:43.076Z,28.40
2018-10-05T13:03:11.226Z,27.70
2018-10-05T13:05:39.607Z,27.10
2018-10-05T13:08:07.777Z,27.20
2018-10-05T13:10:36.032Z,27.70
2018-10-05T13:13:04.178Z,28.00
2018-10-05T13:15:32.292Z,27.00
2018-10-05T13:18:00.748Z,27.10
2018-10-05T13:20:29.024Z,27.10
2018-10-05T13:22:57.649Z,27.00
2018-10-05T13:25:25.803Z,26.60
2018-10-05T13:27:53.891Z,26.30
2018-10-05T13:30:22.028Z,26.60
2018-10-05T13:32:51.148Z,27.00
2018-10-05T13:35:19.357Z,26.30
2018-10-05T13:37:47.487Z,26.80
2018-10-05T13:40:15.652Z,26.60
2018-10-05T13:42:43.783Z,26.60
2018-10-05T13:45:11.912Z,26.70
2018-10-05T13:47:40.100Z,25.80
2018-10-05T13:50:10.227Z,25.40
2018-10-05T13:52:38.377Z,24.90
2018-10-05T13:55:06.589Z,24.90
2018-10-05T13:57:34.728Z,24.40
2018-10-05T14:00:02.881Z,24.80
2018-10-05T14:02:31.503Z,24.80
2018-10-05T14:05:00.034Z,25.10
2018-10-05T14:07:28.565Z,24.80
2018-10-05T14:09:57.076Z,25.00
2018-10-05T14:12:25.558Z,24.50
2018-10-05T14:14:54.042Z,23.50
2018-10-05T14:17:22.519Z,23.30
2018-10-05T14:19:50.739Z,23.60
2018-10-05T14:22:18.860Z,23.90
2018-10-05T14:24:47.053Z,23.50
2018-10-05T14:27:15.206Z,24.10
2018-10-05T14:29:43.375Z,24.60
2018-10-05T14:32:11.645Z,23.80
2018-10-05T14:34:39.841Z,23.90
2018-10-05T14:37:08.026Z,23.90
2018-10-05T14:39:36.335Z,23.50
2018-10-05T14:42:04.471Z,23.40
2018-10-05T14:44:32.923Z,23.40
2018-10-05T14:47:01.074Z,23.20
2018-10-05T14:49:29.233Z,23.80
2018-10-05T14:51:57.369Z,24.10
2018-10-05T14:54:25.501Z,23.40
2018-10-05T14:56:53.639Z,23.40
2018-10-05T14:59:21.743Z,23.00
2018-10-05T15:01:49.820Z,22.70
2018-10-05T15:04:17.925Z,22.50
2018-10-05T15:06:46.063Z,22.60
2018-10-05T15:09:14.173Z,22.90
2018-10-05T15:11:42.369Z,22.60
2018-10-05T15:14:10.549Z,22.30
2018-10-05T15:16:38.652Z,22.40
2018-10-05T15:19:06.735Z,22.20
2018-10-05T15:21:34.915Z,21.80
2018-10-05T15:24:02.972Z,21.50
2018-10-05T15:26:31.047Z,21.50
2018-10-05T15:28:59.180Z,21.20
2018-10-05T15:31:27.337Z,21.00
2018-10-05T15:33:55.513Z,20.60
2018-10-05T15:36:23.699Z,20.40
2018-10-05T15:38:52.033Z,20.20
2018-10-05T15:41:20.125Z,20.00
2018-10-05T15:43:48.268Z,19.70
2018-10-05T15:46:59.069Z,19.40
2018-10-05T15:49:27.968Z,19.20
2018-10-05T15:51:56.177Z,19.10
2018-10-05T15:54:24.307Z,19.10
2018-10-05T15:56:52.810Z,18.90
2018-10-05T15:59:21.032Z,18.80
2018-10-05T16:01:49.189Z,18.70
2018-10-05T16:04:17.653Z,18.50
2018-10-05T16:06:46.335Z,18.30
2018-10-05T16:09:14.562Z,18.20
2018-10-05T16:11:42.734Z,18.10
2018-10-05T16:14:10.917Z,17.90
2018-10-05T16:16:39.128Z,17.80
2018-10-05T16:19:07.714Z,17.70
2018-10-05T16:21:36.390Z,17.60
2018-10-05T16:24:07.079Z,17.50
2018-10-05T16:26:35.158Z,17.30
2018-10-05T16:29:03.388Z,17.20
2018-10-05T16:31:31.778Z,17.10
2018-10-05T16:33:59.940Z,17.00
2018-10-05T16:36:28.093Z,16.90
2018-10-05T16:38:56.285Z,16.80
2018-10-05T16:41:24.469Z,16.70
2018-10-05T16:43:52.609Z,16.60
2018-10-05T16:46:20.781Z,16.50
2018-10-05T16:48:48.973Z,16.40
2018-10-05T16:51:17.149Z,16.30
2018-10-05T16:53:45.377Z,16.30
2018-10-05T16:56:13.693Z,16.20
2018-10-05T16:58:41.854Z,16.20
2018-10-05T17:01:10.060Z,16.10
2018-10-05T17:03:38.223Z,16.00
2018-10-05T17:06:07.985Z,16.00
2018-10-05T17:08:38.793Z,15.90
2018-10-05T17:11:06.986Z,15.90
2018-10-05T17:13:35.137Z,15.90
2018-10-05T17:16:03.327Z,15.90
2018-10-05T17:18:31.467Z,15.80
2018-10-05T17:20:59.662Z,15.80
2018-10-05T17:23:27.891Z,15.70
2018-10-05T17:25:56.372Z,15.70
2018-10-05T17:28:24.498Z,15.70
2018-10-05T17:30:52.625Z,15.60
2018-10-05T17:33:21.602Z,15.60
2018-10-05T17:35:49.839Z,15.60
2018-10-05T17:38:18.342Z,15.60
2018-10-05T17:40:46.473Z,15.60
2018-10-05T17:43:14.628Z,15.60
2018-10-05T17:46:13.935Z,15.50
2018-10-05T17:48:42.255Z,15.40
2018-10-05T17:51:10.532Z,15.30
2018-10-05T17:53:38.705Z,15.30
2018-10-05T17:56:07.113Z,15.30
2018-10-05T17:58:35.217Z,15.30
2018-10-05T18:01:03.420Z,15.10
2018-10-05T18:03:31.594Z,15.00
2018-10-05T18:05:59.720Z,14.90
2018-10-05T18:08:27.972Z,14.80
2018-10-05T18:10:56.110Z,14.70
2018-10-05T18:13:24.285Z,14.60
2018-10-05T18:15:52.445Z,14.50
2018-10-05T18:18:20.662Z,14.60
2018-10-05T18:20:48.841Z,14.50
2018-10-05T18:23:16.960Z,14.50
2018-10-05T18:25:45.134Z,14.50
2018-10-05T18:28:13.395Z,14.40
2018-10-05T18:30:41.511Z,14.40
2018-10-05T18:33:09.680Z,14.30
2018-10-05T18:35:37.836Z,14.30
2018-10-05T18:38:06.320Z,14.20
2018-10-05T18:40:34.512Z,14.10
2018-10-05T18:43:02.693Z,14.10
2018-10-05T18:45:30.876Z,14.00
2018-10-05T18:47:59.244Z,13.90
2018-10-05T18:50:27.380Z,13.80
2018-10-05T18:52:55.491Z,13.80
2018-10-05T18:55:23.937Z,13.70
2018-10-05T18:57:51.992Z,13.80
2018-10-05T19:00:20.140Z,13.70
2018-10-05T19:02:48.544Z,13.60
2018-10-05T19:05:16.665Z,13.60
2018-10-05T19:07:44.923Z,13.50
2018-10-05T19:10:13.079Z,13.40
2018-10-05T19:12:41.183Z,13.30
2018-10-05T19:15:09.333Z,13.30
2018-10-05T19:17:37.500Z,13.20
2018-10-05T19:20:05.632Z,13.20
2018-10-05T19:22:33.769Z,13.10
2018-10-05T19:25:02.013Z,13.10
2018-10-05T19:27:30.141Z,13.10
2018-10-05T19:29:58.302Z,13.00
2018-10-05T19:32:26.469Z,13.00
2018-10-05T19:34:54.663Z,13.00
2018-10-05T19:37:22.816Z,12.90
2018-10-05T19:39:51.003Z,12.80
2018-10-05T19:42:19.221Z,12.70
2018-10-05T19:44:47.453Z,12.70
2018-10-05T19:47:15.614Z,12.60
2018-10-05T19:49:43.779Z,12.60
2018-10-05T19:52:11.956Z,12.70
2018-10-05T19:54:40.176Z,12.80
2018-10-05T19:57:20.848Z,12.70
2018-10-05T19:59:48.995Z,12.70
2018-10-05T20:02:17.141Z,12.80
2018-10-05T20:04:45.297Z,12.70
2018-10-05T20:07:13.521Z,12.70
2018-10-05T20:09:42.815Z,12.70
2018-10-05T20:12:11.160Z,12.70
2018-10-05T20:14:39.421Z,12.70
2018-10-05T20:17:07.670Z,12.80
2018-10-05T20:19:35.763Z,12.90
2018-10-05T20:22:03.968Z,12.90
2018-10-05T20:24:32.271Z,12.90
2018-10-05T20:27:00.420Z,13.00
2018-10-05T20:29:28.623Z,12.90
2018-10-05T20:31:56.788Z,12.80
2018-10-05T20:34:24.979Z,12.70
2018-10-05T20:36:53.343Z,12.80
2018-10-05T20:39:22.392Z,12.80
2018-10-05T20:41:51.486Z,12.80
2018-10-05T20:44:19.829Z,12.70
2018-10-05T20:46:49.460Z,12.70
2018-10-05T20:49:17.578Z,12.70
2018-10-05T20:51:45.810Z,12.80
2018-10-05T20:54:15.267Z,12.70
2018-10-05T20:56:43.430Z,12.60
2018-10-05T20:59:11.653Z,12.60
2018-10-05T21:01:39.794Z,12.60
2018-10-05T21:04:07.960Z,12.50
2018-10-05T21:06:36.124Z,12.60
2018-10-05T21:09:06.451Z,12.60
2018-10-05T21:11:34.685Z,12.50
2018-10-05T21:14:02.950Z,12.60
2018-10-05T21:16:31.105Z,12.70
2018-10-05T21:18:59.328Z,12.70
2018-10-05T21:21:27.621Z,12.70
2018-10-05T21:23:55.797Z,12.80
2018-10-05T21:26:23.952Z,12.90
2018-10-05T21:28:52.132Z,12.80
2018-10-05T21:31:20.428Z,12.70
2018-10-05T21:33:48.700Z,12.70
2018-10-05T21:36:16.832Z,12.80
2018-10-05T21:38:44.969Z,12.80
2018-10-05T21:41:13.177Z,12.80
2018-10-05T21:43:41.313Z,12.80
2018-10-05T21:46:09.454Z,12.90
2018-10-05T21:48:37.685Z,12.90
2018-10-05T21:51:05.791Z,13.00
2018-10-05T21:53:34.051Z,13.00
2018-10-05T21:56:02.165Z,13.10
2018-10-05T21:58:30.323Z,13.20
2018-10-05T22:00:58.524Z,13.30
2018-10-05T22:03:26.668Z,13.40
2018-10-05T22:06:58.187Z,13.30
2018-10-05T22:09:26.363Z,13.30
2018-10-05T22:11:54.505Z,13.40
2018-10-05T22:14:22.669Z,13.40
2018-10-05T22:16:50.881Z,13.30
2018-10-05T22:19:19.053Z,13.30
2018-10-05T22:21:47.184Z,13.10
2018-10-05T22:24:15.413Z,13.10
2018-10-05T22:26:43.508Z,13.00
2018-10-05T22:29:11.734Z,13.00
2018-10-05T22:31:39.872Z,13.10
2018-10-05T22:34:08.211Z,13.10
2018-10-05T22:36:36.385Z,13.10
2018-10-05T22:39:05.695Z,13.20
2018-10-05T22:41:33.976Z,13.30
2018-10-05T22:44:02.040Z,13.30
2018-10-05T22:46:30.194Z,13.20
2018-10-05T22:48:58.423Z,13.30
2018-10-05T22:51:26.657Z,13.40
2018-10-05T22:53:54.819Z,13.30
2018-10-05T22:56:22.991Z,13.30
2018-10-05T22:58:51.097Z,13.20
2018-10-05T23:01:19.200Z,13.20
2018-10-05T23:03:47.394Z,13.10
2018-10-05T23:06:15.628Z,13.10
2018-10-05T23:08:43.832Z,13.00
2018-10-05T23:11:12.048Z,13.00
2018-10-05T23:13:40.179Z,13.00
2018-10-05T23:16:08.428Z,12.90
2018-10-05T23:18:36.703Z,12.80
2018-10-05T23:21:04.776Z,12.80
2018-10-05T23:23:32.944Z,12.70
2018-10-05T23:26:01.060Z,12.70
2018-10-05T23:28:29.200Z,12.60
2018-10-05T23:30:57.453Z,12.60
2018-10-05T23:33:25.624Z,12.60
2018-10-05T23:35:53.784Z,12.60
2018-10-05T23:38:21.885Z,12.60
2018-10-05T23:40:50.047Z,12.50
2018-10-05T23:43:18.273Z,12.60
2018-10-05T23:45:46.426Z,12.50
2018-10-05T23:48:14.588Z,12.50
2018-10-05T23:50:42.668Z,12.40
2018-10-05T23:53:10.763Z,12.40
2018-10-05T23:55:38.994Z,12.40
2018-10-05T23:58:07.121Z,12.40
